createdAt,value
2023-05-10T00:00:38.455Z,6.58
2023-05-10T00:03:11.059Z,6.59
2023-05-10T00:05:38.143Z,6.58
2023-05-10T00:08:04.771Z,6.50
2023-05-10T00:10:31.301Z,6.43
2023-05-10T00:12:57.905Z,6.37
2023-05-10T00:15:24.473Z,6.35
2023-05-10T00:17:51.327Z,6.32
2023-05-10T00:20:18.299Z,6.27
2023-05-10T00:22:45.202Z,6.22
2023-05-10T00:25:11.807Z,6.17
2023-05-10T00:27:38.698Z,6.15
2023-05-10T00:30:06.652Z,6.14
2023-05-10T00:32:33.404Z,6.12
2023-05-10T00:35:00.305Z,6.13
2023-05-10T00:37:27.547Z,6.19
2023-05-10T00:39:55.073Z,6.25
2023-05-10T00:42:22.603Z,6.29
2023-05-10T00:44:49.521Z,6.35
2023-05-10T00:47:17.112Z,6.39
2023-05-10T00:49:43.973Z,6.38
2023-05-10T00:52:11.911Z,6.38
2023-05-10T00:54:38.671Z,6.44
2023-05-10T00:57:05.374Z,6.46
2023-05-10T00:59:32.710Z,6.43
2023-05-10T01:01:59.565Z,6.40
2023-05-10T01:04:26.281Z,6.40
2023-05-10T01:06:54.029Z,6.39
2023-05-10T01:09:21.008Z,6.39
2023-05-10T01:11:48.151Z,6.41
2023-05-10T01:14:15.482Z,6.39
2023-05-10T01:16:42.741Z,6.31
2023-05-10T01:19:17.020Z,6.21
2023-05-10T01:21:53.916Z,6.19
2023-05-10T01:24:40.200Z,6.16
2023-05-10T01:27:17.626Z,6.13
2023-05-10T01:32:33.877Z,6.09
2023-05-10T01:35:06.906Z,6.14
2023-05-10T01:37:40.883Z,6.19
2023-05-10T01:40:19.155Z,6.23
2023-05-10T01:42:48.285Z,6.22
2023-05-10T01:45:21.114Z,6.22
2023-05-10T01:47:50.962Z,6.21
2023-05-10T01:50:20.194Z,6.19
2023-05-10T01:52:55.200Z,6.11
2023-05-10T01:55:23.786Z,6.01
2023-05-10T01:57:53.275Z,5.94
2023-05-10T02:00:20.788Z,5.86
2023-05-10T02:02:49.231Z,5.80
2023-05-10T02:05:16.732Z,5.77
2023-05-10T02:07:44.089Z,5.76
2023-05-10T02:10:12.109Z,5.80
2023-05-10T02:12:41.537Z,5.77
2023-05-10T02:15:09.367Z,5.71
2023-05-10T02:17:37.554Z,5.68
2023-05-10T02:20:11.280Z,5.64
2023-05-10T02:22:39.135Z,5.59
2023-05-10T02:25:07.342Z,5.53
2023-05-10T02:27:35.187Z,5.48
2023-05-10T02:30:02.068Z,5.40
2023-05-10T02:32:29.686Z,5.32
2023-05-10T02:34:57.721Z,5.26
2023-05-10T02:37:25.574Z,5.19
2023-05-10T02:39:54.381Z,5.12
2023-05-10T02:42:25.131Z,5.06
2023-05-10T02:44:53.329Z,4.97
2023-05-10T02:47:20.363Z,4.91
2023-05-10T02:49:47.585Z,4.89
2023-05-10T02:52:17.326Z,4.86
2023-05-10T02:54:50.436Z,4.90
2023-05-10T02:57:20.534Z,4.96
2023-05-10T02:59:47.174Z,4.99
2023-05-10T03:02:13.898Z,5.00
2023-05-10T03:04:40.693Z,4.98
2023-05-10T03:07:08.100Z,4.93
2023-05-10T03:09:37.496Z,4.83
2023-05-10T03:12:04.343Z,4.79
2023-05-10T03:14:31.339Z,4.74
2023-05-10T03:17:07.681Z,4.70
2023-05-10T03:19:37.057Z,4.70
2023-05-10T03:22:05.664Z,4.69
2023-05-10T03:24:35.748Z,4.70
2023-05-10T03:27:04.645Z,4.75
2023-05-10T03:29:32.062Z,4.79
2023-05-10T03:31:59.867Z,4.82
2023-05-10T03:34:27.102Z,4.80
2023-05-10T03:36:53.806Z,4.78
2023-05-10T03:39:21.653Z,4.74
2023-05-10T03:41:51.377Z,4.69
2023-05-10T03:44:17.958Z,4.69
2023-05-10T03:46:44.652Z,4.72
2023-05-10T03:49:11.573Z,4.84
2023-05-10T03:51:38.376Z,5.06
2023-05-10T03:54:05.060Z,5.26
2023-05-10T03:56:32.969Z,5.42
2023-05-10T03:59:00.638Z,5.63
2023-05-10T04:01:27.437Z,5.87
2023-05-10T04:03:54.305Z,6.15
2023-05-10T04:06:21.151Z,6.35
2023-05-10T04:08:47.857Z,6.39
2023-05-10T04:11:14.498Z,6.56
2023-05-10T04:13:41.160Z,6.82
2023-05-10T04:16:08.009Z,7.12
2023-05-10T04:18:35.203Z,7.38
2023-05-10T04:21:01.902Z,7.47
2023-05-10T04:23:32.179Z,7.55
2023-05-10T04:26:02.317Z,7.72
2023-05-10T04:28:28.915Z,7.92
2023-05-10T04:31:09.533Z,8.16
2023-05-10T04:33:36.974Z,8.23
2023-05-10T04:36:03.969Z,8.24
2023-05-10T04:38:30.898Z,8.41
2023-05-10T04:41:07.725Z,8.71
2023-05-10T04:43:34.641Z,8.98
2023-05-10T04:46:01.385Z,9.01
2023-05-10T04:48:28.299Z,9.22
2023-05-10T04:50:54.972Z,9.47
2023-05-10T04:53:21.720Z,9.75
2023-05-10T04:55:49.377Z,10.04
2023-05-10T04:58:17.163Z,10.33
2023-05-10T05:00:44.814Z,10.55
2023-05-10T05:03:14.729Z,10.78
2023-05-10T05:05:41.827Z,11.05
2023-05-10T05:08:09.515Z,11.01
2023-05-10T05:10:37.916Z,10.98
2023-05-10T05:13:05.017Z,10.93
2023-05-10T05:15:32.349Z,11.14
2023-05-10T05:18:01.753Z,11.56
2023-05-10T05:20:28.743Z,11.83
2023-05-10T05:22:56.046Z,11.98
2023-05-10T05:25:23.736Z,12.15
2023-05-10T05:27:50.753Z,12.24
2023-05-10T05:30:18.044Z,12.40
2023-05-10T05:32:46.699Z,12.61
2023-05-10T05:35:13.856Z,12.71
2023-05-10T05:37:41.869Z,12.87
2023-05-10T05:40:09.638Z,12.97
2023-05-10T05:42:42.746Z,12.82
2023-05-10T05:45:13.426Z,13.14
2023-05-10T05:47:41.445Z,13.46
2023-05-10T05:50:23.513Z,13.58
2023-05-10T05:53:45.163Z,13.89
2023-05-10T05:56:40.505Z,14.48
2023-05-10T05:59:24.166Z,14.76
2023-05-10T06:01:56.544Z,15.00
2023-05-10T06:04:49.350Z,15.15
2023-05-10T06:07:26.441Z,15.31
2023-05-10T06:09:57.845Z,15.49
2023-05-10T06:12:33.447Z,15.88
2023-05-10T06:15:09.367Z,16.18
2023-05-10T06:17:39.302Z,16.43
2023-05-10T06:20:16.180Z,16.55
2023-05-10T06:22:44.720Z,16.62
2023-05-10T06:25:16.324Z,16.51
2023-05-10T06:27:52.709Z,16.95
2023-05-10T06:30:27.940Z,16.95
2023-05-10T06:33:07.463Z,17.07
2023-05-10T06:35:37.024Z,17.40
2023-05-10T06:38:16.725Z,17.30
2023-05-10T06:40:50.744Z,17.48
2023-05-10T06:43:22.724Z,17.69
2023-05-10T06:45:56.026Z,17.74
2023-05-10T06:48:28.467Z,17.98
2023-05-10T06:51:07.760Z,18.32
2023-05-10T06:53:51.327Z,18.38
2023-05-10T06:56:25.650Z,18.37
2023-05-10T06:58:58.336Z,18.38
2023-05-10T07:01:34.086Z,18.28
2023-05-10T07:04:13.058Z,18.15
2023-05-10T07:06:48.548Z,18.51
2023-05-10T07:09:18.122Z,18.77
2023-05-10T07:11:51.565Z,18.99
2023-05-10T07:14:20.985Z,19.03
2023-05-10T07:16:52.308Z,19.13
2023-05-10T07:19:26.117Z,19.39
2023-05-10T07:21:55.598Z,19.61
2023-05-10T07:24:31.545Z,19.84
2023-05-10T07:27:06.107Z,19.74
2023-05-10T07:29:36.955Z,19.67
2023-05-10T07:32:04.281Z,19.62
2023-05-10T07:34:35.173Z,19.92
2023-05-10T07:37:02.748Z,20.27
2023-05-10T07:39:31.682Z,20.55
2023-05-10T07:41:59.029Z,20.61
2023-05-10T07:44:26.655Z,20.39
2023-05-10T07:47:04.541Z,20.50
2023-05-10T07:49:34.378Z,20.80
2023-05-10T07:52:03.686Z,20.84
2023-05-10T07:54:32.034Z,21.00
2023-05-10T07:57:00.559Z,21.24
2023-05-10T07:59:27.896Z,21.27
2023-05-10T08:02:00.502Z,21.34
2023-05-10T08:04:31.482Z,21.56
2023-05-10T08:06:58.720Z,21.47
2023-05-10T08:09:26.354Z,21.44
2023-05-10T08:11:54.206Z,21.67
2023-05-10T08:14:28.364Z,21.47
2023-05-10T08:17:00.667Z,21.07
2023-05-10T08:19:29.972Z,21.15
2023-05-10T08:21:57.812Z,21.37
2023-05-10T08:24:28.536Z,21.44
2023-05-10T08:26:56.893Z,21.37
2023-05-10T08:29:26.609Z,21.28
2023-05-10T08:32:01.763Z,21.03
2023-05-10T08:34:29.034Z,21.30
2023-05-10T08:36:57.098Z,21.64
2023-05-10T08:39:30.297Z,21.71
2023-05-10T08:42:02.155Z,21.85
2023-05-10T08:44:31.814Z,21.80
2023-05-10T08:47:04.874Z,22.24
2023-05-10T08:49:34.206Z,22.23
2023-05-10T08:52:15.040Z,22.09
2023-05-10T08:54:50.525Z,21.95
2023-05-10T08:57:20.254Z,22.12
2023-05-10T08:59:47.794Z,21.94
2023-05-10T09:02:18.683Z,22.11
2023-05-10T09:04:49.995Z,22.34
2023-05-10T09:07:17.637Z,21.94
2023-05-10T09:09:45.214Z,22.08
2023-05-10T09:12:13.667Z,22.06
2023-05-10T09:14:43.285Z,21.89
2023-05-10T09:17:11.356Z,22.01
2023-05-10T09:19:41.468Z,21.97
2023-05-10T09:22:09.568Z,22.08
2023-05-10T09:24:42.749Z,22.02
2023-05-10T09:27:16.432Z,22.21
2023-05-10T09:29:56.112Z,22.47
2023-05-10T09:32:39.531Z,22.48
2023-05-10T09:35:36.635Z,22.18
2023-05-10T09:38:06.674Z,22.43
2023-05-10T09:40:33.947Z,22.67
2023-05-10T09:43:03.459Z,22.71
2023-05-10T09:45:34.161Z,22.73
2023-05-10T09:48:03.577Z,23.00
2023-05-10T09:50:31.389Z,22.86
2023-05-10T09:53:06.068Z,22.76
2023-05-10T09:55:44.579Z,23.13
2023-05-10T09:58:16.031Z,23.39
2023-05-10T10:00:44.401Z,23.56
2023-05-10T10:03:19.630Z,23.69
2023-05-10T10:05:50.574Z,23.88
2023-05-10T10:08:19.615Z,24.19
2023-05-10T10:10:48.799Z,23.91
2023-05-10T10:13:16.298Z,24.02
2023-05-10T10:15:44.737Z,23.84
2023-05-10T10:18:15.569Z,23.52
2023-05-10T10:20:43.093Z,23.39
2023-05-10T10:23:11.189Z,23.21
2023-05-10T10:25:38.703Z,23.46
2023-05-10T10:28:26.091Z,23.33
2023-05-10T10:30:56.530Z,23.61
2023-05-10T10:33:33.694Z,23.53
2023-05-10T10:36:01.838Z,23.52
2023-05-10T10:38:42.369Z,23.58
2023-05-10T10:41:27.541Z,23.36
2023-05-10T10:44:14.690Z,22.78
2023-05-10T10:47:01.022Z,22.15
2023-05-10T10:49:32.950Z,21.53
2023-05-10T10:52:19.971Z,21.18
2023-05-10T10:54:50.431Z,20.66
2023-05-10T10:57:18.607Z,20.26
2023-05-10T10:59:45.920Z,19.93
2023-05-10T11:02:33.167Z,19.75
2023-05-10T11:05:00.079Z,19.57
2023-05-10T11:07:27.034Z,19.31
2023-05-10T11:09:54.506Z,19.22
2023-05-10T11:12:21.167Z,18.89
2023-05-10T11:14:50.388Z,18.82
2023-05-10T11:17:43.658Z,18.70
2023-05-10T11:20:11.115Z,18.69
2023-05-10T11:22:54.059Z,18.32
2023-05-10T11:25:26.428Z,18.30
2023-05-10T11:27:53.182Z,18.06
2023-05-10T11:30:20.909Z,18.03
2023-05-10T11:32:47.839Z,17.79
2023-05-10T11:35:15.190Z,17.71
2023-05-10T11:37:44.168Z,17.71
2023-05-10T11:40:11.419Z,17.60
2023-05-10T11:42:38.568Z,17.41
2023-05-10T11:45:05.905Z,17.50
2023-05-10T11:47:32.779Z,17.53
2023-05-10T11:50:00.428Z,17.49
2023-05-10T11:52:27.194Z,17.38
2023-05-10T11:54:54.662Z,17.22
2023-05-10T11:57:25.994Z,17.09
2023-05-10T11:59:56.725Z,16.87
2023-05-10T12:02:23.589Z,16.79
2023-05-10T12:04:51.266Z,16.84
2023-05-10T12:07:18.021Z,16.87
2023-05-10T12:09:45.455Z,16.84
2023-05-10T12:12:20.457Z,16.83
2023-05-10T12:14:51.603Z,16.98
2023-05-10T12:17:18.330Z,17.02
2023-05-10T12:19:45.135Z,17.02
2023-05-10T12:22:12.008Z,17.06
2023-05-10T12:24:39.378Z,17.04
2023-05-10T12:27:08.518Z,16.79
2023-05-10T12:29:35.181Z,16.81
2023-05-10T12:32:03.037Z,16.99
2023-05-10T12:34:34.583Z,17.09
2023-05-10T12:37:01.489Z,16.97
2023-05-10T12:39:47.094Z,16.91
2023-05-10T12:42:13.940Z,16.86
2023-05-10T12:44:41.638Z,16.88
2023-05-10T12:47:08.352Z,16.65
2023-05-10T12:49:35.144Z,16.55
2023-05-10T12:52:02.163Z,16.55
2023-05-10T12:54:28.986Z,16.44
2023-05-10T12:56:55.864Z,16.29
2023-05-10T12:59:23.238Z,16.34
2023-05-10T13:01:49.934Z,16.44
2023-05-10T13:04:16.672Z,16.42
2023-05-10T13:06:43.327Z,16.46
2023-05-10T13:09:10.057Z,16.47
2023-05-10T13:11:37.352Z,16.56
2023-05-10T13:14:04.004Z,16.46
2023-05-10T13:16:30.847Z,16.33
2023-05-10T13:18:57.810Z,16.28
2023-05-10T13:21:25.542Z,16.13
2023-05-10T13:23:53.168Z,16.12
2023-05-10T13:26:20.415Z,16.14
2023-05-10T13:28:46.995Z,16.24
2023-05-10T13:31:13.598Z,16.28
2023-05-10T13:33:40.292Z,16.21
2023-05-10T13:36:07.123Z,16.05
2023-05-10T13:38:33.868Z,15.86
2023-05-10T13:41:00.852Z,15.76
2023-05-10T13:43:27.356Z,15.64
2023-05-10T13:45:53.871Z,15.62
2023-05-10T13:48:20.698Z,15.60
2023-05-10T13:50:47.499Z,15.59
2023-05-10T13:53:14.722Z,15.62
2023-05-10T13:55:41.648Z,15.67
2023-05-10T13:58:08.339Z,15.75
2023-05-10T14:00:35.168Z,15.85
2023-05-10T14:03:01.820Z,15.89
2023-05-10T14:05:28.643Z,15.86
2023-05-10T14:07:55.677Z,15.88
2023-05-10T14:10:22.491Z,15.82
2023-05-10T14:12:50.063Z,15.76
2023-05-10T14:15:17.478Z,15.71
2023-05-10T14:17:44.571Z,15.77
2023-05-10T14:20:11.581Z,15.74
2023-05-10T14:22:38.327Z,15.69
2023-05-10T14:25:05.165Z,15.73
2023-05-10T14:27:32.745Z,15.74
2023-05-10T14:29:59.435Z,15.70
2023-05-10T14:32:27.753Z,15.67
2023-05-10T14:34:54.344Z,15.65
2023-05-10T14:37:21.423Z,15.64
2023-05-10T14:39:48.127Z,15.67
2023-05-10T14:42:14.763Z,15.70
2023-05-10T14:44:41.315Z,15.65
2023-05-10T14:47:08.893Z,15.69
2023-05-10T14:49:36.740Z,15.71
2023-05-10T14:52:03.568Z,15.78
2023-05-10T14:54:30.421Z,15.85
2023-05-10T14:56:57.057Z,15.84
2023-05-10T14:59:23.966Z,15.83
2023-05-10T15:01:51.100Z,15.84
2023-05-10T15:04:18.526Z,15.79
2023-05-10T15:06:45.602Z,15.73
2023-05-10T15:09:12.491Z,15.68
2023-05-10T15:11:39.243Z,15.62
2023-05-10T15:14:06.508Z,15.58
2023-05-10T15:16:35.845Z,15.54
2023-05-10T15:19:03.293Z,15.55
2023-05-10T15:21:35.499Z,15.59
2023-05-10T15:24:02.325Z,15.59
2023-05-10T15:26:28.984Z,15.58
2023-05-10T15:28:55.780Z,15.54
2023-05-10T15:31:22.886Z,15.51
2023-05-10T15:33:49.707Z,15.45
2023-05-10T15:36:18.137Z,15.43
2023-05-10T15:38:45.006Z,15.39
2023-05-10T15:41:12.216Z,15.32
2023-05-10T15:43:38.908Z,15.26
2023-05-10T15:46:06.447Z,15.22
2023-05-10T15:48:33.308Z,15.18
2023-05-10T15:50:59.926Z,15.11
2023-05-10T15:53:26.570Z,15.04
2023-05-10T15:55:53.264Z,15.02
2023-05-10T15:58:19.899Z,14.96
2023-05-10T16:00:46.702Z,14.88
2023-05-10T16:03:13.496Z,14.80
2023-05-10T16:05:40.525Z,14.76
2023-05-10T16:08:07.558Z,14.73
2023-05-10T16:10:34.473Z,14.67
2023-05-10T16:13:03.180Z,14.60
2023-05-10T16:15:29.825Z,14.56
2023-05-10T16:17:57.256Z,14.53
2023-05-10T16:20:24.119Z,14.41
2023-05-10T16:22:51.153Z,14.31
2023-05-10T16:25:18.266Z,14.22
2023-05-10T16:27:45.245Z,14.11
2023-05-10T16:30:11.957Z,14.00
2023-05-10T16:32:38.912Z,13.93
2023-05-10T16:35:05.993Z,13.88
2023-05-10T16:37:32.634Z,13.86
2023-05-10T16:39:59.260Z,13.84
2023-05-10T16:42:26.380Z,13.82
2023-05-10T16:44:53.750Z,13.78
2023-05-10T16:47:20.339Z,13.73
2023-05-10T16:49:47.080Z,13.63
2023-05-10T16:52:13.717Z,13.58
2023-05-10T16:54:40.785Z,13.55
2023-05-10T16:57:07.993Z,13.52
2023-05-10T16:59:34.559Z,13.50
2023-05-10T17:02:01.189Z,13.51
2023-05-10T17:04:28.109Z,13.51
2023-05-10T17:06:54.923Z,13.51
2023-05-10T17:09:21.581Z,13.49
2023-05-10T17:11:48.207Z,13.45
2023-05-10T17:14:14.764Z,13.43
2023-05-10T17:16:41.685Z,13.37
2023-05-10T17:19:08.801Z,13.30
2023-05-10T17:21:35.528Z,13.26
2023-05-10T17:24:02.165Z,13.21
2023-05-10T17:26:29.381Z,13.17
2023-05-10T17:28:57.246Z,13.12
2023-05-10T17:31:24.080Z,13.06
2023-05-10T17:33:50.796Z,12.96
2023-05-10T17:36:17.372Z,12.88
2023-05-10T17:38:44.144Z,12.80
2023-05-10T17:41:10.814Z,12.75
2023-05-10T17:43:37.761Z,12.69
2023-05-10T17:46:04.688Z,12.62
2023-05-10T17:48:31.491Z,12.53
2023-05-10T17:50:57.993Z,12.43
2023-05-10T17:53:25.203Z,12.30
2023-05-10T17:55:51.963Z,12.17
2023-05-10T17:58:18.713Z,12.08
2023-05-10T18:00:45.748Z,11.95
2023-05-10T18:03:12.260Z,11.83
2023-05-10T18:05:39.012Z,11.72
2023-05-10T18:08:06.781Z,11.61
2023-05-10T18:10:33.686Z,11.48
2023-05-10T18:13:01.928Z,11.37
2023-05-10T18:15:32.609Z,11.30
2023-05-10T18:18:03.584Z,11.26
2023-05-10T18:20:30.844Z,11.16
2023-05-10T18:22:58.013Z,11.12
2023-05-10T18:25:25.145Z,11.10
2023-05-10T18:27:51.958Z,11.09
2023-05-10T18:30:18.594Z,11.08
2023-05-10T18:32:45.390Z,11.07
2023-05-10T18:35:12.118Z,11.08
2023-05-10T18:37:38.955Z,11.09
2023-05-10T18:40:08.929Z,11.08
2023-05-10T18:42:36.044Z,11.09
2023-05-10T18:45:03.018Z,11.07
2023-05-10T18:47:30.549Z,11.05
2023-05-10T18:49:57.453Z,10.98
2023-05-10T18:52:24.348Z,10.89
2023-05-10T18:54:51.097Z,10.82
2023-05-10T18:57:17.934Z,10.77
2023-05-10T18:59:44.570Z,10.72
2023-05-10T19:02:11.373Z,10.66
2023-05-10T19:04:38.655Z,10.58
2023-05-10T19:07:05.438Z,10.51
2023-05-10T19:09:32.062Z,10.44
2023-05-10T19:11:58.777Z,10.37
2023-05-10T19:14:25.712Z,10.33
2023-05-10T19:16:53.724Z,10.26
2023-05-10T19:19:20.587Z,10.20
2023-05-10T19:21:47.443Z,10.17
2023-05-10T19:24:14.209Z,10.15
2023-05-10T19:26:40.845Z,10.14
2023-05-10T19:29:07.730Z,10.12
2023-05-10T19:31:34.653Z,10.05
2023-05-10T19:34:03.670Z,9.99
2023-05-10T19:36:30.907Z,9.93
2023-05-10T19:38:57.429Z,9.89
2023-05-10T19:41:24.244Z,9.85
2023-05-10T19:43:52.927Z,9.82
2023-05-10T19:46:20.466Z,9.80
2023-05-10T19:48:51.010Z,9.77
2023-05-10T19:51:17.813Z,9.74
2023-05-10T19:53:44.629Z,9.70
2023-05-10T19:56:12.130Z,9.60
2023-05-10T19:58:38.903Z,9.51
2023-05-10T20:01:07.070Z,9.45
2023-05-10T20:03:34.403Z,9.42
2023-05-10T20:06:01.628Z,9.40
2023-05-10T20:08:28.225Z,9.37
2023-05-10T20:10:58.355Z,9.32
2023-05-10T20:13:25.097Z,9.27
2023-05-10T20:15:54.860Z,9.18
2023-05-10T20:18:21.910Z,9.12
2023-05-10T20:20:52.386Z,9.08
2023-05-10T20:23:19.109Z,9.01
2023-05-10T20:25:46.001Z,8.95
2023-05-10T20:28:12.565Z,8.93
2023-05-10T20:30:40.291Z,8.90
2023-05-10T20:33:07.811Z,8.86
2023-05-10T20:35:35.275Z,8.84
2023-05-10T20:38:01.868Z,8.78
2023-05-10T20:40:28.710Z,8.69
2023-05-10T20:42:55.894Z,8.60
2023-05-10T20:45:22.878Z,8.54
2023-05-10T20:47:49.669Z,8.48
2023-05-10T20:50:16.733Z,8.42
2023-05-10T20:52:43.806Z,8.35
2023-05-10T20:55:10.450Z,8.27
2023-05-10T20:57:37.104Z,8.21
2023-05-10T21:00:05.052Z,8.18
2023-05-10T21:02:31.846Z,8.16
2023-05-10T21:04:58.993Z,8.12
2023-05-10T21:07:25.538Z,8.07
2023-05-10T21:09:52.123Z,8.05
2023-05-10T21:12:18.778Z,8.00
2023-05-10T21:14:47.088Z,7.97
2023-05-10T21:17:14.100Z,7.92
2023-05-10T21:19:40.642Z,7.91
2023-05-10T21:22:07.639Z,7.93
2023-05-10T21:24:34.711Z,7.91
2023-05-10T21:27:02.189Z,7.90
2023-05-10T21:29:28.809Z,7.89
2023-05-10T21:31:55.628Z,7.90
2023-05-10T21:34:22.859Z,7.92
2023-05-10T21:36:49.429Z,7.91
2023-05-10T21:39:16.274Z,7.88
2023-05-10T21:41:43.005Z,7.84
2023-05-10T21:44:10.868Z,7.78
2023-05-10T21:46:37.485Z,7.75
2023-05-10T21:49:04.101Z,7.74
2023-05-10T21:51:30.893Z,7.70
2023-05-10T21:53:57.839Z,7.67
2023-05-10T21:56:24.646Z,7.64
2023-05-10T21:58:51.527Z,7.60
2023-05-10T22:01:18.518Z,7.55
2023-05-10T22:03:45.701Z,7.48
2023-05-10T22:06:12.306Z,7.43
2023-05-10T22:08:38.931Z,7.35
2023-05-10T22:11:05.573Z,7.30
2023-05-10T22:13:32.227Z,7.23
2023-05-10T22:15:59.418Z,7.17
2023-05-10T22:18:26.308Z,7.09
2023-05-10T22:20:52.950Z,7.00
2023-05-10T22:23:19.457Z,6.89
2023-05-10T22:25:46.204Z,6.85
2023-05-10T22:28:12.944Z,6.80
2023-05-10T22:30:41.047Z,6.75
2023-05-10T22:33:07.689Z,6.69
2023-05-10T22:35:34.220Z,6.67
2023-05-10T22:38:01.013Z,6.66
2023-05-10T22:40:27.631Z,6.65
2023-05-10T22:42:54.203Z,6.64
2023-05-10T22:45:20.864Z,6.62
2023-05-10T22:47:47.685Z,6.59
2023-05-10T22:50:14.969Z,6.55
2023-05-10T22:52:42.004Z,6.49
2023-05-10T22:55:08.977Z,6.42
2023-05-10T22:57:35.807Z,6.35
2023-05-10T23:00:03.853Z,6.28
2023-05-10T23:02:31.549Z,6.24
2023-05-10T23:04:58.736Z,6.21
2023-05-10T23:07:25.544Z,6.13
2023-05-10T23:09:52.125Z,6.04
2023-05-10T23:12:18.669Z,6.01
2023-05-10T23:14:48.716Z,6.00
2023-05-10T23:17:15.861Z,6.05
2023-05-10T23:19:42.631Z,6.11
2023-05-10T23:22:09.430Z,6.16
2023-05-10T23:24:36.296Z,6.19
2023-05-10T23:27:03.237Z,6.20
2023-05-10T23:29:31.456Z,6.18
2023-05-10T23:31:58.251Z,6.12
2023-05-10T23:34:24.929Z,6.05
2023-05-10T23:36:51.483Z,6.01
2023-05-10T23:39:18.471Z,6.00
2023-05-10T23:41:45.106Z,5.95
2023-05-10T23:44:11.963Z,5.87
2023-05-10T23:46:38.600Z,5.75
2023-05-10T23:49:05.583Z,5.63
2023-05-10T23:51:32.313Z,5.56
2023-05-10T23:53:58.959Z,5.52
2023-05-10T23:56:26.296Z,5.48
2023-05-10T23:58:53.112Z,5.43
